Time;durP1;ratioP1;P1;durP2;ratioP2;P2;SDS_P1;SDS_P2;PMS_P1;PMS_P2;Temp;Humidity;BMP_temperature;BMP_pressure;BME280_temperature;BME280_humidity;BME280_pressure;Samples;Min_cycle;Max_cycle;Signal;HPM_P1;HPM_P2
2024/02/11 00:01:49;;;;;;;70.20;41.90;;;;;;;7.88;84.93;99421.04;123148;1102;104360;-77
2024/02/11 00:04:20;;;;;;;66.50;41.43;;;;;;;7.88;85.06;99425.36;123129;1102;104277;-77
2024/02/11 00:06:51;;;;;;;67.33;39.17;;;;;;;7.85;84.75;99423.56;123103;1102;104363;-77
2024/02/11 00:09:22;;;;;;;64.55;37.70;;;;;;;7.82;84.97;99414.73;122860;1102;104890;-77
2024/02/11 00:11:53;;;;;;;62.83;35.90;;;;;;;7.80;85.15;99401.63;122770;1102;104277;-77
2024/02/11 00:14:27;;;;;;;58.53;34.03;;;;;;;7.79;85.24;99404.19;122754;1102;104227;-78
2024/02/11 00:16:59;;;;;;;61.18;35.25;;;;;;;7.79;85.57;99406.80;123936;1101;104705;-77
2024/02/11 00:19:32;;;;;;;59.90;35.83;;;;;;;7.76;85.34;99414.55;122759;1102;104341;-77
2024/02/11 00:22:03;;;;;;;58.07;34.53;;;;;;;7.76;85.34;99405.01;123192;1102;104347;-76
2024/02/11 00:24:35;;;;;;;57.67;34.60;;;;;;;7.78;85.41;99400.70;122857;1104;104411;-76
2024/02/11 00:27:09;;;;;;;62.00;34.90;;;;;;;7.80;85.51;99395.53;123129;1102;104254;-76
2024/02/11 00:29:40;;;;;;;;;;;;;;;7.80;85.04;99396.41;123025;1101;104277;-76
2024/02/11 00:32:11;;;;;;;60.10;33.47;;;;;;;7.78;85.15;99400.70;122820;1102;104537;-76
2024/02/11 00:34:43;;;;;;;59.87;34.17;;;;;;;7.79;85.21;99405.09;122783;1102;104431;-77
2024/02/11 00:37:14;;;;;;;60.97;35.87;;;;;;;7.79;85.45;99405.09;122778;1102;104411;-77
2024/02/11 00:39:46;;;;;;;63.93;35.60;;;;;;;7.77;85.55;99401.53;122807;1102;104335;-76
2024/02/11 00:42:20;;;;;;;58.20;33.40;;;;;;;7.78;85.37;99408.54;123192;1102;104235;-76
2024/02/11 00:44:52;;;;;;;59.67;36.03;;;;;;;7.78;85.48;99400.70;122810;1104;104377;-76
2024/02/11 00:47:23;;;;;;;61.03;34.40;;;;;;;7.81;85.25;99402.53;123270;1102;104255;-76
2024/02/11 00:49:55;;;;;;;58.03;33.67;;;;;;;7.82;85.65;99399.97;123072;1102;104293;-77
2024/02/11 00:52:30;;;;;;;58.17;33.17;;;;;;;7.80;84.91;99385.95;122946;1102;104326;-77
2024/02/11 00:55:02;;;;;;;57.17;33.30;;;;;;;7.76;85.45;99386.73;122799;1102;104248;-77
2024/02/11 00:57:36;;;;;;;59.43;35.20;;;;;;;7.76;85.37;99391.05;122868;1102;104199;-77
2024/02/11 01:00:11;;;;;;;56.30;33.87;;;;;;;7.77;85.31;99387.60;122846;1102;104351;-76
2024/02/11 01:02:42;;;;;;;65.10;35.47;;;;;;;7.77;85.17;99388.48;122896;1102;104358;-76
2024/02/11 01:05:14;;;;;;;60.55;34.00;;;;;;;7.77;85.46;99390.22;123188;1101;104373;-77
2024/02/11 01:07:45;;;;;;;60.23;35.20;;;;;;;7.75;85.16;99384.95;122809;1102;104233;-77
2024/02/11 01:10:17;;;;;;;57.70;34.60;;;;;;;7.76;85.27;99375.37;122757;1103;104367;-76
2024/02/11 01:12:49;;;;;;;58.13;34.03;;;;;;;7.76;84.89;99381.50;122827;1102;104414;-77
2024/02/11 01:15:21;;;;;;;55.27;32.43;;;;;;;7.76;85.35;99376.28;122846;1102;104651;-77
2024/02/11 01:17:53;;;;;;;59.13;34.97;;;;;;;7.72;84.85;99374.41;122756;1102;104251;-78
2024/02/11 01:20:24;;;;;;;55.53;32.93;;;;;;;7.71;85.54;99377.85;122836;1103;104261;-77
2024/02/11 01:22:56;;;;;;;57.00;33.10;;;;;;;7.67;85.37;99376.02;123126;1102;104812;-76
2024/02/11 01:25:27;;;;;;;56.77;32.70;;;;;;;7.67;85.31;99383.84;123141;1102;104301;-77
2024/02/11 01:27:58;;;;;;;61.23;34.50;;;;;;;7.70;85.52;99376.98;123172;1102;104277;-76
2024/02/11 01:30:29;;;;;;;55.33;32.93;;;;;;;7.75;85.26;99377.11;122950;1102;104274;-76
2024/02/11 01:33:01;;;;;;;61.93;34.90;;;;;;;7.77;85.65;99380.64;122837;1102;104232;-76
2024/02/11 01:35:32;;;;;;;55.30;32.87;;;;;;;7.79;85.46;99384.20;122790;1102;104399;-76
2024/02/11 01:38:06;;;;;;;57.27;32.67;;;;;;;7.81;85.79;99387.73;122749;1102;104355;-77
2024/02/11 01:40:37;;;;;;;53.60;33.00;;;;;;;7.82;85.26;99383.39;122897;1102;104253;-77
2024/02/11 01:43:10;;;;;;;54.43;31.17;;;;;;;7.81;85.48;99377.30;123112;1102;104370;-77
2024/02/11 01:45:45;;;;;;;59.23;34.00;;;;;;;7.81;85.43;99372.06;123196;1102;104252;-76
2024/02/11 01:48:18;;;;;;;54.50;32.30;;;;;;;7.82;85.47;99366.02;122784;1102;104335;-77
2024/02/11 01:50:52;;;;;;;53.87;31.52;;;;;;;7.86;85.55;99369.59;122725;1105;104293;-78
2024/02/11 01:53:24;;;;;;;56.23;32.53;;;;;;;7.87;85.76;99364.41;122774;1102;104357;-77
2024/02/11 01:55:56;;;;;;;57.47;31.93;;;;;;;7.87;85.38;99374.86;122785;1102;104348;-76
2024/02/11 01:58:28;;;;;;;57.37;32.93;;;;;;;7.85;85.32;99370.42;122775;1102;104261;-77
2024/02/11 02:01:01;;;;;;;60.50;34.20;;;;;;;7.84;85.62;99366.06;122861;1102;104351;-77
2024/02/11 02:03:32;;;;;;;59.77;32.90;;;;;;;7.84;85.82;99363.45;123243;1102;104476;-77
2024/02/11 02:06:04;;;;;;;59.20;33.07;;;;;;;7.85;85.62;99360.87;123128;1102;104277;-77
2024/02/11 02:08:35;;;;;;;56.77;32.63;;;;;;;7.87;85.89;99368.76;123099;1102;104399;-76
2024/02/11 02:11:06;;;;;;;59.67;33.23;;;;;;;7.87;85.76;99368.76;123147;1102;104280;-77
2024/02/11 02:13:38;;;;;;;61.10;35.35;;;;;;;7.90;85.59;99367.11;123019;1102;104277;-77
2024/02/11 02:16:10;;;;;;;56.30;33.83;;;;;;;7.92;85.74;99365.41;122978;1102;104284;-77
2024/02/11 02:18:45;;;;;;;56.80;33.40;;;;;;;7.92;85.50;99370.64;123175;1102;104355;-77
2024/02/11 02:21:20;;;;;;;54.20;32.40;;;;;;;7.94;85.76;99372.42;122830;1102;104351;-78
2024/02/11 02:23:52;;;;;;;59.77;32.90;;;;;;;7.95;85.91;99374.16;123160;1102;104248;-77
2024/02/11 02:26:23;;;;;;;54.90;32.20;;;;;;;7.96;85.63;99368.11;122794;1102;104669;-77
2024/02/11 02:28:54;;;;;;;56.17;31.73;;;;;;;7.97;85.62;99364.67;123118;1102;104367;-77
2024/02/11 02:31:25;;;;;;;57.13;31.93;;;;;;;7.96;85.87;99370.72;123022;1102;104360;-77
2024/02/11 02:33:57;;;;;;;50.80;29.40;;;;;;;7.95;85.30;99366.33;122736;1102;104361;-77
2024/02/11 02:36:28;;;;;;;53.87;30.93;;;;;;;7.95;85.35;99358.49;122654;1102;104691;-76
2024/02/11 02:38:59;;;;;;;51.80;29.70;;;;;;;7.94;85.77;99349.78;122627;1102;104383;-76
2024/02/11 02:41:30;;;;;;;55.17;30.90;;;;;;;7.96;85.88;99355.92;122770;1102;105495;-76
2024/02/11 02:44:02;;;;;;;55.80;30.27;;;;;;;7.98;85.66;99359.48;123125;1102;104332;-77
2024/02/11 02:46:33;;;;;;;52.43;30.33;;;;;;;7.98;85.14;99358.58;122730;1102;104329;-76
2024/02/11 02:49:04;;;;;;;54.10;30.00;;;;;;;7.97;85.09;99342.03;123176;1102;104666;-77
2024/02/11 02:51:35;;;;;;;55.27;31.40;;;;;;;7.97;85.24;99347.26;123076;1102;104489;-77
2024/02/11 02:54:07;;;;;;;52.07;30.13;;;;;;;7.97;85.69;99344.64;122735;1102;104390;-78
2024/02/11 02:56:38;;;;;;;50.23;30.27;;;;;;;7.96;85.45;99350.70;122748;1102;104341;-77
2024/02/11 02:59:10;;;;;;;47.93;28.67;;;;;;;7.96;85.38;99363.77;122734;1102;104255;-78
2024/02/11 03:01:46;;;;;;;52.20;29.60;;;;;;;7.95;84.94;99361.11;122793;1102;104239;-77
2024/02/11 03:04:17;;;;;;;58.77;29.30;;;;;;;7.92;85.24;99365.41;123081;1102;104272;-77
2024/02/11 03:06:49;;;;;;;51.50;29.40;;;;;;;7.93;85.45;99368.90;123051;1102;104286;-77
2024/02/11 03:09:20;;;;;;;52.80;29.63;;;;;;;7.93;85.75;99371.52;123077;1102;104399;-78
2024/02/11 03:11:51;;;;;;;50.57;28.70;;;;;;;7.97;85.18;99368.16;123056;1102;104271;-76
2024/02/11 03:14:22;;;;;;;51.67;29.33;;;;;;;8.00;85.84;99369.98;122753;1102;104701;-76
2024/02/11 03:16:53;;;;;;;48.97;28.70;;;;;;;8.00;85.73;99367.37;122763;1103;104899;-77
2024/02/11 03:19:25;;;;;;;48.23;28.60;;;;;;;8.02;85.40;99376.12;122694;1102;104406;-76
2024/02/11 03:21:56;;;;;;;50.17;28.30;;;;;;;8.05;85.72;99365.75;122741;1102;104350;-76
2024/02/11 03:24:28;;;;;;;50.03;28.13;;;;;;;8.06;85.19;99357.09;123114;1102;104361;-76
2024/02/11 03:26:59;;;;;;;48.30;28.30;;;;;;;8.09;85.88;99365.01;123201;1102;104331;-76
2024/02/11 03:29:30;;;;;;;51.07;28.83;;;;;;;8.07;85.27;99364.97;122764;1102;104379;-77
2024/02/11 03:32:02;;;;;;;48.23;28.13;;;;;;;8.06;85.24;99365.80;123062;1102;104335;-77
2024/02/11 03:34:35;;;;;;;54.18;29.12;;;;;;;8.00;85.23;99367.37;122799;1102;104268;-76
2024/02/11 03:37:08;;;;;;;51.35;28.60;;;;;;;7.94;85.38;99362.84;122752;1105;104456;-77
2024/02/11 03:39:40;;;;;;;50.07;29.10;;;;;;;7.96;85.23;99357.66;122867;1101;104290;-77
2024/02/11 03:42:11;;;;;;;48.83;29.50;;;;;;;7.99;85.50;99361.23;122797;1102;104265;-77
2024/02/11 03:44:45;;;;;;;51.60;30.30;;;;;;;8.00;85.45;99346.47;123165;1102;107114;-76
2024/02/11 03:47:16;;;;;;;50.57;28.17;;;;;;;7.97;85.13;99343.77;123156;1102;104374;-77
2024/02/11 03:49:47;;;;;;;60.27;29.77;;;;;;;7.96;85.12;99340.25;123171;1102;104316;-76
2024/02/11 03:52:18;;;;;;;51.17;29.37;;;;;;;7.98;85.67;99332.45;123169;1102;104473;-76
2024/02/11 03:54:50;;;;;;;46.73;27.60;;;;;;;7.99;84.91;99326.40;122976;1103;104268;-76
2024/02/11 03:57:21;;;;;;;47.00;27.57;;;;;;;7.98;85.36;99329.84;122743;1102;104493;-76
2024/02/11 03:59:52;;;;;;;52.70;29.17;;;;;;;8.01;85.77;99319.48;122894;1102;104258;-77
2024/02/11 04:02:23;;;;;;;49.40;26.23;;;;;;;8.00;84.90;99313.38;122753;1102;104236;-76
2024/02/11 04:04:54;;;;;;;50.17;27.33;;;;;;;7.99;85.15;99308.98;123097;1102;104255;-77
2024/02/11 04:07:26;;;;;;;46.57;27.87;;;;;;;7.99;84.90;99324.66;122884;1102;104361;-76
2024/02/11 04:10:09;;;;;;;48.43;28.33;;;;;;;7.99;85.08;99326.40;123128;1101;104403;-77
2024/02/11 04:12:41;;;;;;;51.37;28.17;;;;;;;7.97;85.02;99335.94;122737;1102;104334;-76
2024/02/11 04:15:15;;;;;;;50.35;28.60;;;;;;;7.95;85.46;99333.28;122748;1102;111687;-76
2024/02/11 04:17:48;;;;;;;;;;;;;;;7.94;85.22;99323.66;122831;1102;104360;-76
2024/02/11 04:20:26;;;;;;;46.30;26.40;;;;;;;7.94;85.35;99321.05;122857;1102;104334;-77
2024/02/11 04:22:58;;;;;;;50.07;27.63;;;;;;;7.94;85.55;99325.40;123075;1102;104344;-77
2024/02/11 04:25:33;;;;;;;45.33;26.40;;;;;;;7.96;85.36;99324.58;123095;1101;104356;-76
2024/02/11 04:28:07;;;;;;;45.33;25.93;;;;;;;7.97;85.10;99322.87;123211;1102;104310;-76
2024/02/11 04:30:42;;;;;;;46.93;27.20;;;;;;;7.99;85.37;99326.40;122856;1102;104402;-77
2024/02/11 04:33:15;;;;;;;47.77;26.93;;;;;;;7.99;85.19;99331.63;123162;1102;104327;-77
2024/02/11 04:35:47;;;;;;;47.45;26.95;;;;;;;7.99;85.10;99329.02;122712;1102;107909;-77
2024/02/11 04:38:18;;;;;;;46.07;26.10;;;;;;;7.98;85.06;99332.45;122774;1102;104244;-76
2024/02/11 04:40:51;;;;;;;43.87;25.73;;;;;;;8.00;84.92;99330.80;122775;1102;104402;-76
2024/02/11 04:43:23;;;;;;;47.17;25.97;;;;;;;7.99;85.12;99327.27;122775;1103;104319;-77
2024/02/11 04:45:56;;;;;;;49.80;27.45;;;;;;;8.00;84.86;99330.80;123087;1102;104376;-77
2024/02/11 04:48:27;;;;;;;48.23;26.83;;;;;;;7.99;85.25;99334.23;122752;1102;104739;-76
2024/02/11 04:50:58;;;;;;;42.53;25.37;;;;;;;7.99;85.40;99334.23;122789;1102;104376;-76
2024/02/11 04:53:30;;;;;;;48.37;25.83;;;;;;;7.99;85.00;99335.11;122740;1102;104268;-76
2024/02/11 04:56:01;;;;;;;44.43;25.27;;;;;;;7.96;85.16;99337.64;122733;1105;104348;-77
2024/02/11 04:58:34;;;;;;;43.60;26.03;;;;;;;7.92;85.10;99349.73;122780;1102;104517;-77
2024/02/11 05:01:05;;;;;;;45.17;24.67;;;;;;;7.88;85.04;99352.22;122730;1102;104390;-77
2024/02/11 05:03:38;;;;;;;43.95;26.55;;;;;;;7.87;85.34;99340.90;122806;1105;104338;-77
2024/02/11 05:06:10;;;;;;;43.63;24.83;;;;;;;7.88;85.27;99368.80;122829;1102;104235;-77
2024/02/11 05:08:44;;;;;;;47.65;25.80;;;;;;;7.89;84.84;99370.55;122740;1102;104242;-77
2024/02/11 05:11:13;;;;;;;;;;;;;;;7.89;85.22;99367.06;122738;1102;104274;-76
2024/02/11 05:13:44;;;;;;;41.60;23.40;;;;;;;7.86;84.69;99356.53;122689;1102;104390;-76
2024/02/11 05:16:16;;;;;;;44.00;26.47;;;;;;;7.82;84.99;99344.22;122814;1102;104443;-76
2024/02/11 05:18:48;;;;;;;42.60;24.33;;;;;;;7.79;85.09;99342.42;122717;1102;104287;-77
2024/02/11 05:21:19;;;;;;;44.00;24.63;;;;;;;7.77;84.51;99343.21;122766;1102;104243;-77
2024/02/11 05:23:51;;;;;;;42.60;24.30;;;;;;;7.72;85.05;99340.47;122806;1102;104361;-78
2024/02/11 05:26:22;;;;;;;44.53;24.07;;;;;;;7.69;85.24;99350.82;122799;1102;104345;-76
2024/02/11 05:28:53;;;;;;;46.67;25.00;;;;;;;7.69;84.97;99349.08;122813;1103;104724;-76
2024/02/11 05:31:26;;;;;;;44.77;23.60;;;;;;;7.69;85.29;99356.05;123081;1102;104348;-77
2024/02/11 05:34:00;;;;;;;42.33;23.80;;;;;;;7.66;84.60;99363.78;122862;1102;104278;-77
2024/02/11 05:36:31;;;;;;;39.65;21.02;;;;;;;7.63;84.70;99348.03;122732;1102;104382;-77
2024/02/11 05:39:03;;;;;;;38.50;21.05;;;;;;;7.61;84.74;99341.89;122822;1102;104498;-77
2024/02/11 05:41:34;;;;;;;40.37;20.67;;;;;;;7.59;84.52;99339.23;122749;1102;104281;-77
2024/02/11 05:44:05;;;;;;;39.33;20.73;;;;;;;7.58;84.39;99344.41;123107;1102;104297;-77
2024/02/11 05:46:36;;;;;;;37.33;19.53;;;;;;;7.58;84.46;99347.90;122871;1102;104248;-76
2024/02/11 05:49:08;;;;;;;37.17;19.70;;;;;;;7.61;84.74;99352.34;122844;1101;104229;-77
2024/02/11 05:51:39;;;;;;;36.00;19.80;;;;;;;7.57;84.41;99348.73;122833;1102;104360;-77
2024/02/11 05:54:10;;;;;;;39.93;21.03;;;;;;;7.55;84.22;99353.91;122782;1102;104354;-77
2024/02/11 05:56:41;;;;;;;35.80;19.73;;;;;;;7.55;84.64;99366.95;122988;1102;104251;-77
2024/02/11 05:59:12;;;;;;;39.70;21.87;;;;;;;7.54;85.00;99353.86;123098;1102;104274;-76
2024/02/11 06:01:44;;;;;;;37.00;20.70;;;;;;;7.56;84.38;99362.64;122889;1104;104492;-77
2024/02/11 06:04:17;;;;;;;37.83;20.83;;;;;;;7.56;84.66;99366.13;122730;1102;104412;-77
2024/02/11 06:06:49;;;;;;;42.30;20.97;;;;;;;7.60;84.82;99369.70;122772;1102;104239;-77
2024/02/11 06:09:21;;;;;;;40.50;21.63;;;;;;;7.65;84.47;99356.78;122822;1102;104727;-76
2024/02/11 06:11:53;;;;;;;45.83;20.80;;;;;;;7.66;84.76;99356.83;122902;1102;104326;-77
2024/02/11 06:14:24;;;;;;;34.45;20.30;;;;;;;7.71;84.96;99356.96;122782;1102;104311;-76
2024/02/11 06:16:55;;;;;;;36.90;21.27;;;;;;;7.74;84.32;99352.73;123136;1102;104380;-77
2024/02/11 06:19:26;;;;;;;37.87;19.90;;;;;;;7.78;84.73;99351.09;123204;1102;104661;-77
2024/02/11 06:21:59;;;;;;;37.00;20.40;;;;;;;7.84;84.44;99356.48;123054;1102;104299;-77
2024/02/11 06:24:32;;;;;;;37.73;21.03;;;;;;;7.88;84.66;99353.13;123172;1102;104245;-76
2024/02/11 06:27:03;;;;;;;36.60;20.00;;;;;;;7.95;84.85;99355.88;122897;1102;104287;-77
2024/02/11 06:29:35;;;;;;;36.93;20.30;;;;;;;8.00;84.78;99365.62;122825;1102;104319;-77
2024/02/11 06:32:08;;;;;;;39.07;20.77;;;;;;;8.08;85.01;99360.61;123061;1102;104261;-76
2024/02/11 06:34:40;;;;;;;34.25;19.60;;;;;;;8.15;84.48;99349.50;122945;1102;104238;-78
2024/02/11 06:37:11;;;;;;;34.17;18.77;;;;;;;8.22;84.87;99346.19;122955;1102;104341;-77
2024/02/11 06:39:42;;;;;;;36.93;19.00;;;;;;;8.27;84.77;99347.22;123096;1102;104259;-77
2024/02/11 06:42:14;;;;;;;35.77;19.57;;;;;;;8.32;84.21;99349.95;123282;1102;104431;-77
2024/02/11 06:44:45;;;;;;;30.97;17.70;;;;;;;8.36;84.69;99345.67;122849;1102;104281;-77
2024/02/11 06:47:19;;;;;;;36.87;18.63;;;;;;;8.37;84.74;99340.48;122999;1102;104290;-77
2024/02/11 06:49:51;;;;;;;34.27;19.77;;;;;;;8.44;84.84;99338.94;123094;1102;104261;-78
2024/02/11 06:52:24;;;;;;;32.53;17.93;;;;;;;8.51;84.11;99338.27;122839;1102;104743;-77
2024/02/11 06:54:56;;;;;;;35.20;18.98;;;;;;;8.60;84.23;99340.20;122900;1102;104685;-77
2024/02/11 06:57:29;;;;;;;33.83;18.13;;;;;;;8.69;84.37;99331.72;123216;1102;104690;-77
2024/02/11 07:00:00;;;;;;;37.10;18.35;;;;;;;8.74;84.42;99338.84;123175;1102;104386;-77
2024/02/11 07:02:34;;;;;;;35.70;18.03;;;;;;;8.79;84.53;99334.59;123173;1102;104245;-77
2024/02/11 07:05:09;;;;;;;34.48;18.73;;;;;;;8.89;84.03;99333.08;123215;1102;104306;-77
2024/02/11 07:07:42;;;;;;;35.37;18.63;;;;;;;9.00;84.09;99342.05;122962;1102;104358;-76
2024/02/11 07:10:13;;;;;;;37.60;19.05;;;;;;;9.12;84.42;99337.97;122869;1102;104374;-77
2024/02/11 07:12:46;;;;;;;35.70;19.43;;;;;;;9.24;84.14;99339.97;122768;1102;104382;-77
2024/02/11 07:15:19;;;;;;;37.57;19.80;;;;;;;9.32;83.93;99346.28;122878;1102;104252;-76
2024/02/11 07:17:50;;;;;;;40.40;21.20;;;;;;;9.42;84.04;99339.50;122807;1102;104258;-75
2024/02/11 07:20:22;;;;;;;46.20;24.23;;;;;;;9.51;83.88;99340.58;123211;1102;104409;-76
2024/02/11 07:22:56;;;;;;;43.53;24.07;;;;;;;9.62;83.97;99350.41;123346;1102;104258;-76
2024/02/11 07:25:30;;;;;;;40.60;23.87;;;;;;;9.69;83.80;99334.85;123193;1102;104363;-77
2024/02/11 07:28:01;;;;;;;43.87;23.62;;;;;;;9.75;83.96;99341.05;122866;1102;104317;-76
2024/02/11 07:30:33;;;;;;;44.40;22.77;;;;;;;9.80;84.01;99347.27;122883;1105;104357;-76
2024/02/11 07:33:07;;;;;;;46.97;23.83;;;;;;;9.84;83.31;99334.26;122903;1102;104171;-76
2024/02/11 07:35:38;;;;;;;44.50;23.83;;;;;;;9.86;83.20;99326.42;122826;1102;104361;-76
2024/02/11 07:38:10;;;;;;;42.17;23.63;;;;;;;9.85;82.67;99328.17;122937;1102;104383;-76
2024/02/11 07:40:42;;;;;;;44.80;23.70;;;;;;;9.86;82.17;99326.42;122801;1102;104284;-76
2024/02/11 07:43:14;;;;;;;41.07;21.67;;;;;;;9.90;82.17;99323.03;122994;1102;104319;-76
2024/02/11 07:45:45;;;;;;;38.57;21.07;;;;;;;9.98;82.71;99325.80;123113;1102;104291;-75
2024/02/11 07:48:16;;;;;;;39.43;20.67;;;;;;;10.11;83.12;99319.04;122876;1102;104323;-77
2024/02/11 07:50:48;;;;;;;37.93;19.17;;;;;;;10.26;83.11;99319.33;122794;1102;104274;-77
2024/02/11 07:53:20;;;;;;;35.17;19.37;;;;;;;10.41;82.79;99324.00;122752;1102;104405;-76
2024/02/11 07:55:51;;;;;;;37.73;18.63;;;;;;;10.50;81.40;99315.39;122807;1101;104306;-77
2024/02/11 07:58:23;;;;;;;36.00;18.37;;;;;;;10.49;80.13;99319.77;122781;1102;104333;-76
2024/02/11 08:00:55;;;;;;;33.30;17.93;;;;;;;10.55;80.62;99324.21;122841;1102;104310;-76
2024/02/11 08:03:27;;;;;;;33.57;17.77;;;;;;;10.65;81.21;99325.27;122942;1102;104351;-76
2024/02/11 08:05:58;;;;;;;36.23;18.23;;;;;;;10.70;80.88;99340.21;123140;1102;104265;-76
2024/02/11 08:08:29;;;;;;;31.67;17.53;;;;;;;10.76;80.75;99328.95;122864;1102;104505;-76
2024/02/11 08:11:00;;;;;;;33.50;17.30;;;;;;;10.84;81.02;99329.06;122829;1102;104424;-76
2024/02/11 08:13:32;;;;;;;29.73;17.30;;;;;;;10.94;80.92;99330.98;122832;1102;104284;-76
2024/02/11 08:16:04;;;;;;;31.90;17.07;;;;;;;11.09;80.70;99333.82;122770;1102;104360;-76
2024/02/11 08:18:35;;;;;;;34.20;18.00;;;;;;;11.21;81.03;99335.75;122849;1102;104242;-76
2024/02/11 08:21:09;;;;;;;32.87;17.33;;;;;;;11.35;81.03;99330.70;122890;1102;104361;-76
2024/02/11 08:23:40;;;;;;;33.00;17.40;;;;;;;11.51;80.78;99334.41;122967;1102;104347;-76
2024/02/11 08:26:12;;;;;;;30.70;17.27;;;;;;;11.65;80.96;99334.59;122858;1102;104274;-76
2024/02/11 08:28:44;;;;;;;32.63;16.63;;;;;;;11.78;80.89;99333.89;122831;1102;104316;-75
2024/02/11 08:31:16;;;;;;;34.90;18.10;;;;;;;11.89;80.19;99334.02;122813;1102;104277;-76
2024/02/11 08:33:47;;;;;;;34.07;18.37;;;;;;;11.93;79.91;99337.59;122784;1102;104325;-75
2024/02/11 08:36:18;;;;;;;34.20;17.43;;;;;;;11.93;79.04;99335.83;122710;1102;104357;-75
2024/02/11 08:38:50;;;;;;;31.37;16.67;;;;;;;11.96;78.95;99335.00;122858;1102;104466;-76
2024/02/11 08:41:21;;;;;;;32.87;16.80;;;;;;;11.99;78.72;99329.77;123182;1102;104329;-77
2024/02/11 08:43:52;;;;;;;33.73;17.30;;;;;;;12.07;78.73;99337.75;122843;1105;104335;-76
2024/02/11 08:46:23;;;;;;;33.80;16.17;;;;;;;12.10;78.49;99338.66;123193;1102;104348;-76
2024/02/11 08:48:54;;;;;;;32.00;16.07;;;;;;;12.18;78.91;99338.73;122776;1102;104712;-76
2024/02/11 08:51:25;;;;;;;32.50;16.20;;;;;;;12.25;78.79;99342.30;122829;1102;104354;-76
2024/02/11 08:53:57;;;;;;;33.73;16.90;;;;;;;12.28;77.95;99343.23;122818;1102;104248;-77
2024/02/11 08:56:29;;;;;;;30.43;17.30;;;;;;;12.33;77.94;99341.53;122896;1102;104248;-75
2024/02/11 08:59:00;;;;;;;32.77;17.10;;;;;;;12.40;78.18;99347.72;122898;1102;104679;-76
2024/02/11 09:01:31;;;;;;;31.70;16.90;;;;;;;12.47;77.73;99344.30;122880;1105;104485;-76
2024/02/11 09:04:04;;;;;;;38.23;18.17;;;;;;;12.55;77.62;99347.88;123092;1102;104363;-77
2024/02/11 09:06:35;;;;;;;33.77;18.10;;;;;;;12.63;77.16;99349.70;123084;1101;104264;-76
2024/02/11 09:09:07;;;;;;;30.97;16.97;;;;;;;12.70;77.34;99341.88;123181;1102;104268;-76
2024/02/11 09:11:41;;;;;;;33.90;17.77;;;;;;;12.75;77.26;99342.78;122887;1102;105012;-76
2024/02/11 09:14:12;;;;;;;32.13;16.83;;;;;;;12.80;76.94;99348.09;122761;1102;104249;-77
2024/02/11 09:16:43;;;;;;;40.50;18.57;;;;;;;12.82;75.94;99345.47;122872;1102;104245;-75
2024/02/11 09:19:15;;;;;;;36.27;18.27;;;;;;;12.84;76.47;99336.73;123088;1102;104258;-76
2024/02/11 09:21:46;;;;;;;34.40;18.93;;;;;;;12.85;75.21;99329.70;123104;1102;104632;-77
2024/02/11 09:24:18;;;;;;;35.43;18.70;;;;;;;12.91;74.64;99319.22;123097;1102;104281;-77
2024/02/11 09:26:51;;;;;;;35.10;18.70;;;;;;;12.93;75.04;99322.73;122924;1102;104408;-76
2024/02/11 09:29:22;;;;;;;40.60;18.17;;;;;;;13.01;75.57;99312.25;122888;1102;104285;-75
2024/02/11 09:31:54;;;;;;;37.83;18.80;;;;;;;13.09;75.48;99310.58;122810;1102;104261;-75
2024/02/11 09:34:25;;;;;;;40.87;18.53;;;;;;;13.19;75.22;99308.88;122799;1102;104221;-75
2024/02/11 09:36:57;;;;;;;35.53;17.90;;;;;;;13.23;73.98;99311.53;122884;1102;104331;-76
2024/02/11 09:39:28;;;;;;;38.20;19.27;;;;;;;13.27;74.34;99301.89;123054;1102;104518;-74
2024/02/11 09:41:59;;;;;;;32.97;18.07;;;;;;;13.35;74.98;99315.13;122788;1102;104351;-77
2024/02/11 09:44:36;;;;;;;33.80;18.63;;;;;;;13.40;74.67;99310.76;122803;1102;104680;-75
2024/02/11 09:47:09;;;;;;;35.00;18.47;;;;;;;13.45;74.58;99304.66;122955;1102;104271;-75
2024/02/11 09:49:45;;;;;;;39.03;17.98;;;;;;;13.55;74.67;99312.60;122874;1102;104262;-76
2024/02/11 09:52:19;;;;;;;32.10;17.05;;;;;;;13.64;74.82;99320.55;122793;1102;107102;-76
2024/02/11 09:54:52;;;;;;;34.23;17.97;;;;;;;13.76;74.82;99322.34;123105;1102;104297;-76
2024/02/11 09:57:23;;;;;;;36.47;17.60;;;;;;;13.88;74.79;99314.48;123181;1102;104310;-76
2024/02/11 09:59:55;;;;;;;33.57;17.53;;;;;;;14.02;74.54;99312.78;122765;1102;104284;-76
2024/02/11 10:02:27;;;;;;;36.90;17.83;;;;;;;14.16;75.05;99306.64;122730;1102;104251;-76
2024/02/11 10:05:05;;;;;;;27.50;11.27;;;;;;;14.29;74.30;99305.80;122795;1103;104657;-76
2024/02/11 10:07:43;;;;;;;23.33;9.47;;;;;;;14.47;73.77;99294.37;122742;1102;104248;-76
2024/02/11 10:10:16;;;;;;;17.37;8.13;;;;;;;14.62;73.37;99293.53;122783;1102;104348;-76
2024/02/11 10:12:51;;;;;;;17.63;7.67;;;;;;;14.79;73.27;99295.27;122789;1102;104271;-77
2024/02/11 10:15:25;;;;;;;19.23;7.03;;;;;;;14.92;71.74;99286.47;123100;1101;104229;-76
2024/02/11 10:17:56;;;;;;;17.17;6.47;;;;;;;15.06;72.20;99292.60;122952;1102;104347;-76
2024/02/11 10:20:27;;;;;;;17.33;6.77;;;;;;;15.16;71.79;99287.30;123039;1102;104268;-77
2024/02/11 10:22:58;;;;;;;21.00;7.40;;;;;;;15.30;72.22;99284.63;122792;1102;104299;-77
2024/02/11 10:25:31;;;;;;;17.75;7.00;;;;;;;15.42;71.33;99288.09;122790;1102;104338;-76
2024/02/11 10:28:02;;;;;;;17.67;6.70;;;;;;;15.54;71.08;99279.26;122762;1102;104346;-75
2024/02/11 10:30:34;;;;;;;18.70;6.90;;;;;;;15.68;71.32;99276.55;122819;1105;104492;-76
2024/02/11 10:33:07;;;;;;;16.17;6.63;;;;;;;15.85;70.75;99262.37;122898;1102;104251;-75
2024/02/11 10:35:38;;;;;;;20.67;6.57;;;;;;;15.94;71.08;99257.94;123175;1102;104239;-75
2024/02/11 10:38:11;;;;;;;17.80;6.90;;;;;;;16.03;70.48;99251.69;123140;1102;104274;-76
2024/02/11 10:40:46;;;;;;;15.23;6.55;;;;;;;16.10;68.94;99248.13;122839;1102;104242;-76
2024/02/11 10:43:21;;;;;;;16.30;6.97;;;;;;;16.18;68.65;99243.65;122790;1102;104575;-75
2024/02/11 10:45:52;;;;;;;18.33;6.20;;;;;;;16.34;69.11;99235.59;122805;1102;104223;-77
2024/02/11 10:48:24;;;;;;;16.77;6.50;;;;;;;16.43;67.87;99229.36;122815;1102;104373;-76
2024/02/11 10:51:08;;;;;;;16.17;6.67;;;;;;;16.51;67.16;99223.09;122729;1102;104354;-76
2024/02/11 10:53:44;;;;;;;17.97;6.40;;;;;;;16.54;67.32;99223.06;123006;1102;118270;-75
2024/02/11 10:56:16;;;;;;;17.10;6.10;;;;;;;16.54;64.54;99214.25;122741;1102;104444;-75
2024/02/11 10:59:02;;;;;;;18.30;6.70;;;;;;;16.53;65.32;99216.03;123102;1102;104201;-76
2024/02/11 11:01:34;;;;;;;17.13;6.90;;;;;;;16.58;65.12;99215.09;122864;1102;104277;-76
2024/02/11 11:04:08;;;;;;;16.53;6.30;;;;;;;16.56;62.11;99208.94;122901;1102;104302;-75
2024/02/11 11:06:41;;;;;;;14.28;6.00;;;;;;;16.52;62.94;99208.97;122832;1102;104255;-78
2024/02/11 11:09:13;;;;;;;18.27;6.10;;;;;;;16.52;63.55;99218.70;122777;1102;104300;-75
2024/02/11 11:11:44;;;;;;;14.60;5.90;;;;;;;16.52;64.16;99214.27;122838;1102;104252;-76
2024/02/11 11:14:19;;;;;;;14.00;5.30;;;;;;;16.59;63.89;99214.21;123148;1102;104232;-75
2024/02/11 11:16:52;;;;;;;16.60;6.13;;;;;;;16.70;63.46;99207.93;122810;1102;104353;-75
2024/02/11 11:19:25;;;;;;;18.45;6.50;;;;;;;16.80;62.55;99202.54;123125;1102;104303;-77
2024/02/11 11:21:58;;;;;;;16.65;6.08;;;;;;;16.86;63.67;99184.83;122685;1102;104293;-76
2024/02/11 11:24:29;;;;;;;16.20;6.20;;;;;;;16.92;63.35;99189.17;122808;1102;104380;-77
2024/02/11 11:27:03;;;;;;;17.67;5.80;;;;;;;16.93;62.94;99195.36;122862;1102;104377;-76
2024/02/11 11:29:35;;;;;;;18.60;6.07;;;;;;;16.94;62.42;99194.45;122868;1102;104249;-77
2024/02/11 11:32:10;;;;;;;15.90;5.73;;;;;;;16.95;62.26;99202.38;122856;1102;104229;-77